Shosei Maru — JJ4047 — position and weather

sailwx.info

Track history (hours):
 
Tides and Currents Weather Stations Pressure Air Temp Water Temp Dewpoint Dewpoint Depression Visibility Wind Speed Wind Dir Waves Ship Positions

Shosei Maru

Last reported at 2018-May-31 18:52 UTC. Time now 2018-Jun-22 03:06 UTC.
Position N 34°57' E 139°27'.
Warning: this ship's position is 21 days out of date.

Length 105 m; draft 5.3 m.

Type: Tanker. MMSI: 431301658.

Date/timePositionNaut miles runAvg speedWind from/ knotsBaromVisibWave heightAir tempDewpointWater temp
2018-May-31 18:52N 34°57' E 139°27'514.3
2018-May-31 18:31N 35°01' E 139°32'714.8
2018-May-31 18:00N 35°06' E 139°39'714.8
2018-May-31 17:31N 35°11' E 139°45'612.6
2018-May-31 17:00N 35°17' E 139°45'612.7
2018-May-31 16:31N 35°23' E 139°42'714.3
2018-May-31 16:00N 35°28' E 139°49'713.6
2018-May-31 15:29N 35°31' E 139°57'2 0.3
2018-May-31 07:46N 35°31' E 139°60'414.0
2018-May-31 07:28N 35°30' E 139°56'613.8
2018-May-31 07:00N 35°26' E 139°49'611.4
2018-May-31 06:31N 35°22' E 139°44'0 0.3
2018-May-31 05:58N 35°22' E 139°44'0 0.0
2018-May-31 05:28N 35°22' E 139°44'1 2.1
2018-May-31 05:00N 35°21' E 139°44'612.0
2018-May-31 04:31N 35°16' E 139°46'612.3
2018-May-31 04:00N 35°10' E 139°46'713.4
2018-May-31 03:30N 35°04' E 139°42'714.2
2018-May-31 03:00N 34°59' E 139°35'23412.4
2018-May-30 08:06N 33°47' E 135°05'212.8
2018-May-30 07:57N 33°49' E 135°04'612.5
2018-May-30 07:30N 33°54' E 135°01'713.7
2018-May-30 07:00N 34°00' E 135°02'713.5
2018-May-30 06:30N 34°07' E 135°04'3 5.7
2018-May-30 05:58N 34°07' E 135°07'0 0.0
2018-May-30 05:28N 34°07' E 135°07'0 0.0
2018-May-30 04:58N 34°07' E 135°07'0 0.0
2018-May-30 04:28N 34°07' E 135°07'0 0.0
2018-May-30 03:58N 34°07' E 135°07'0 0.0
2018-May-30 03:28N 34°07' E 135°07'0 0.0
2018-May-30 02:58N 34°07' E 135°07'0 0.0
2018-May-30 02:25N 34°07' E 135°07'0 0.0
2018-May-30 01:58N 34°07' E 135°07'0 0.0
2018-May-30 01:28N 34°07' E 135°07'0 0.0
2018-May-30 00:58N 34°07' E 135°07'0 0.0
2018-May-30 00:28N 34°07' E 135°07'0 0.0
2018-May-29 23:58N 34°07' E 135°07'0 0.0
2018-May-29 23:28N 34°07' E 135°07'0 0.0
2018-May-29 22:58N 34°07' E 135°07'0 0.0
2018-May-29 22:30N 34°07' E 135°07'0 0.0
2018-May-29 22:00N 34°07' E 135°07'2 3.4
2018-May-29 21:30N 34°08' E 135°06'2 3.7
2018-May-29 21:00N 34°10' E 135°05'2 4.5
2018-May-29 20:30N 34°12' E 135°05'1 1.5
2018-May-29 20:00N 34°12' E 135°04'5 9.8
2018-May-29 19:31N 34°15' E 134°59'713.0
2018-May-29 19:00N 34°22' E 135°00'713.8
2018-May-29 18:30N 34°28' E 135°03'713.3
2018-May-29 18:00N 34°35' E 135°04'813.9
2018-May-29 17:28N 34°36' E 134°55'714.4
2018-May-29 16:59N 34°33' E 134°48'613.3
2018-May-29 16:31N 34°30' E 134°41'713.6
2018-May-29 16:01N 34°28' E 134°33'713.4
2018-May-29 15:30N 34°25' E 134°25'  
Track history (hours):
 
Tides and Currents Weather Stations Pressure Air Temp Water Temp Dewpoint Dewpoint Depression Visibility Wind Speed Wind Dir Waves Ship Positions

Shosei Maru

Last reported at 2018-May-31 18:52 UTC. Time now 2018-Jun-22 03:06 UTC.
Position N 34°57' E 139°27'.
Warning: this ship's position is 21 days out of date.

Length 105 m; draft 5.3 m.

Type: Tanker. MMSI: 431301658.

Date/timePositionNaut miles runAvg speedWind from/ knotsBaromVisibWave heightAir tempDewpointWater temp
2018-May-31 18:52N 34°57' E 139°27'514.3
2018-May-31 18:31N 35°01' E 139°32'714.8
2018-May-31 18:00N 35°06' E 139°39'714.8
2018-May-31 17:31N 35°11' E 139°45'612.6
2018-May-31 17:00N 35°17' E 139°45'612.7
2018-May-31 16:31N 35°23' E 139°42'714.3
2018-May-31 16:00N 35°28' E 139°49'713.6
2018-May-31 15:29N 35°31' E 139°57'2 0.3
2018-May-31 07:46N 35°31' E 139°60'414.0
2018-May-31 07:28N 35°30' E 139°56'613.8
2018-May-31 07:00N 35°26' E 139°49'611.4
2018-May-31 06:31N 35°22' E 139°44'0 0.3
2018-May-31 05:58N 35°22' E 139°44'0 0.0
2018-May-31 05:28N 35°22' E 139°44'1 2.1
2018-May-31 05:00N 35°21' E 139°44'612.0
2018-May-31 04:31N 35°16' E 139°46'612.3
2018-May-31 04:00N 35°10' E 139°46'713.4
2018-May-31 03:30N 35°04' E 139°42'714.2
2018-May-31 03:00N 34°59' E 139°35'23412.4
2018-May-30 08:06N 33°47' E 135°05'212.8
2018-May-30 07:57N 33°49' E 135°04'612.5
2018-May-30 07:30N 33°54' E 135°01'713.7
2018-May-30 07:00N 34°00' E 135°02'713.5
2018-May-30 06:30N 34°07' E 135°04'3 5.7
2018-May-30 05:58N 34°07' E 135°07'0 0.0
2018-May-30 05:28N 34°07' E 135°07'0 0.0
2018-May-30 04:58N 34°07' E 135°07'0 0.0
2018-May-30 04:28N 34°07' E 135°07'0 0.0
2018-May-30 03:58N 34°07' E 135°07'0 0.0
2018-May-30 03:28N 34°07' E 135°07'0 0.0
2018-May-30 02:58N 34°07' E 135°07'0 0.0
2018-May-30 02:25N 34°07' E 135°07'0 0.0
2018-May-30 01:58N 34°07' E 135°07'0 0.0
2018-May-30 01:28N 34°07' E 135°07'0 0.0
2018-May-30 00:58N 34°07' E 135°07'0 0.0
2018-May-30 00:28N 34°07' E 135°07'0 0.0
2018-May-29 23:58N 34°07' E 135°07'0 0.0
2018-May-29 23:28N 34°07' E 135°07'0 0.0
2018-May-29 22:58N 34°07' E 135°07'0 0.0
2018-May-29 22:30N 34°07' E 135°07'0 0.0
2018-May-29 22:00N 34°07' E 135°07'2 3.4
2018-May-29 21:30N 34°08' E 135°06'2 3.7
2018-May-29 21:00N 34°10' E 135°05'2 4.5
2018-May-29 20:30N 34°12' E 135°05'1 1.5
2018-May-29 20:00N 34°12' E 135°04'5 9.8
2018-May-29 19:31N 34°15' E 134°59'713.0
2018-May-29 19:00N 34°22' E 135°00'713.8
2018-May-29 18:30N 34°28' E 135°03'713.3
2018-May-29 18:00N 34°35' E 135°04'813.9
2018-May-29 17:28N 34°36' E 134°55'714.4
2018-May-29 16:59N 34°33' E 134°48'613.3
2018-May-29 16:31N 34°30' E 134°41'713.6
2018-May-29 16:01N 34°28' E 134°33'713.4
2018-May-29 15:30N 34°25' E 134°25'  

Dump ship's entire track history